Time;durP1;ratioP1;P1;durP2;ratioP2;P2;SDS_P1;SDS_P2;PMS_P1;PMS_P2;Temp;Humidity;BMP_temperature;BMP_pressure;BME280_temperature;BME280_humidity;BME280_pressure;Samples;Min_cycle;Max_cycle;Signal;HPM_P1;HPM_P2
2023/03/11 00:00:12;;;;;;;1.80;0.82;;;0.40;99.90;;;;;;4993278;28;20476;-77
2023/03/11 00:02:39;;;;;;;0.85;0.85;;;0.00;99.90;;;;;;4992952;28;20104;-77
2023/03/11 00:05:05;;;;;;;2.17;1.08;;;0.00;99.90;;;;;;4993176;28;20499;-77
2023/03/11 00:07:31;;;;;;;2.22;1.00;;;0.00;99.90;;;;;;4992559;28;20050;-77
2023/03/11 00:09:57;;;;;;;3.17;1.20;;;0.00;99.90;;;;;;4992825;28;20042;-77
2023/03/11 00:12:23;;;;;;;3.83;1.02;;;0.00;99.90;;;;;;4992957;28;20054;-77
2023/03/11 00:14:48;;;;;;;2.33;1.65;;;0.00;99.90;;;;;;4992043;28;20108;-77
2023/03/11 00:17:14;;;;;;;9.18;1.38;;;0.10;99.90;;;;;;4992802;28;20049;-77
2023/03/11 00:19:40;;;;;;;1.98;1.17;;;0.10;99.90;;;;;;4991628;28;20348;-77
2023/03/11 00:22:06;;;;;;;2.63;1.15;;;0.20;99.90;;;;;;4993321;28;20046;-77
2023/03/11 00:24:33;;;;;;;2.03;1.20;;;1.00;99.90;;;;;;4992443;28;20039;-77
2023/03/11 00:26:58;;;;;;;5.13;1.50;;;0.20;99.90;;;;;;4992750;28;20038;-77
2023/03/11 00:29:24;;;;;;;4.90;1.35;;;0.20;99.90;;;;;;4992711;28;20120;-77
2023/03/11 00:31:50;;;;;;;3.75;1.05;;;0.30;99.90;;;;;;4992800;28;20052;-77
2023/03/11 00:34:15;;;;;;;8.73;1.63;;;0.60;99.90;;;;;;4992869;28;20073;-77
2023/03/11 00:36:41;;;;;;;4.07;1.65;;;0.30;99.90;;;;;;4992681;28;20627;-77
2023/03/11 00:39:07;;;;;;;7.28;1.33;;;0.40;99.90;;;;;;4992220;28;20048;-77
2023/03/11 00:41:33;;;;;;;3.88;1.30;;;0.40;99.90;;;;;;4992041;28;20050;-77
2023/03/11 00:44:00;;;;;;;4.63;1.40;;;0.90;99.90;;;;;;4992858;28;20041;-77
2023/03/11 00:46:27;;;;;;;3.00;1.60;;;0.40;99.90;;;;;;4991406;28;20085;-77
2023/03/11 00:48:53;;;;;;;2.75;1.23;;;0.30;99.90;;;;;;4992784;28;20053;-77
2023/03/11 00:51:18;;;;;;;1.73;1.15;;;0.60;99.90;;;;;;4991881;28;20548;-77
2023/03/11 00:53:44;;;;;;;3.83;1.35;;;0.40;99.90;;;;;;4991773;28;20088;-77
2023/03/11 00:56:12;;;;;;;6.88;1.27;;;0.40;99.90;;;;;;4992333;28;20058;-77
2023/03/11 00:58:39;;;;;;;1.70;1.10;;;0.40;99.90;;;;;;4991886;28;20064;-77
2023/03/11 01:01:10;;;;;;;2.85;1.02;;;0.40;99.90;;;;;;4991668;28;20506;-77
2023/03/11 01:03:36;;;;;;;2.42;1.10;;;0.50;99.90;;;;;;4992041;28;20463;-77
2023/03/11 01:06:03;;;;;;;1.60;0.95;;;0.40;99.90;;;;;;4992534;28;20053;-75
2023/03/11 01:08:30;;;;;;;4.53;1.23;;;0.40;99.90;;;;;;4991561;28;20073;-76
2023/03/11 01:10:56;;;;;;;2.30;0.95;;;0.40;99.90;;;;;;4992050;28;20050;-77
2023/03/11 01:13:23;;;;;;;3.10;1.10;;;0.40;99.90;;;;;;4991345;28;20089;-77
2023/03/11 01:15:48;;;;;;;6.05;1.65;;;0.30;99.90;;;;;;4991993;28;20474;-77
2023/03/11 01:18:15;;;;;;;4.47;1.38;;;0.40;99.90;;;;;;4991965;28;20081;-77
2023/03/11 01:20:41;;;;;;;3.50;1.10;;;0.30;99.90;;;;;;4990745;28;20081;-77
2023/03/11 01:23:07;;;;;;;10.38;1.73;;;0.30;99.90;;;;;;4991879;28;20058;-77
2023/03/11 01:25:34;;;;;;;2.03;1.08;;;0.30;99.90;;;;;;4991583;28;20054;-77
2023/03/11 01:27:59;;;;;;;3.50;1.38;;;0.30;99.90;;;;;;4992323;28;20050;-77
2023/03/11 01:30:27;;;;;;;6.93;1.60;;;0.30;99.90;;;;;;4992237;28;20502;-77
2023/03/11 01:32:54;;;;;;;3.10;1.20;;;0.30;99.90;;;;;;4991967;28;20050;-77
2023/03/11 01:35:21;;;;;;;3.15;1.30;;;0.30;99.90;;;;;;4992149;28;20050;-77
2023/03/11 01:37:47;;;;;;;4.55;1.45;;;0.30;99.90;;;;;;4991374;28;20129;-77
2023/03/11 01:40:27;;;;;;;4.18;1.45;;;0.50;99.90;;;;;;4991357;28;20130;-77
2023/03/11 01:42:53;;;;;;;2.55;1.20;;;0.30;99.90;;;;;;4991631;28;20626;-77
2023/03/11 01:45:30;;;;;;;6.03;1.30;;;0.30;99.90;;;;;;4992118;28;20050;-77
2023/03/11 01:47:56;;;;;;;7.78;1.45;;;0.30;99.90;;;;;;4991775;28;20069;-78
2023/03/11 01:50:23;;;;;;;6.57;1.65;;;0.30;99.90;;;;;;4990321;28;20046;-78
2023/03/11 01:52:48;;;;;;;5.88;1.50;;;0.30;99.90;;;;;;4992276;28;20057;-77
2023/03/11 01:55:16;;;;;;;5.18;1.10;;;0.30;99.90;;;;;;4989599;28;20059;-78
2023/03/11 01:57:43;;;;;;;7.45;1.42;;;0.70;99.90;;;;;;4991252;28;20078;-78
2023/03/11 02:00:11;;;;;;;7.68;1.40;;;0.30;99.90;;;;;;4991587;28;20057;-77
2023/03/11 02:03:00;;;;;;;1.75;1.05;;;0.30;99.90;;;;;;4994020;28;20093;-77
2023/03/11 02:05:25;;;;;;;5.68;1.48;;;0.40;99.90;;;;;;4977886;28;20408;-78
2023/03/11 02:07:53;;;;;;;3.47;1.20;;;0.20;99.90;;;;;;4993678;28;20056;-78
2023/03/11 02:10:19;;;;;;;4.28;1.10;;;0.20;99.90;;;;;;4994671;28;20140;-78
2023/03/11 02:12:45;;;;;;;;;;;0.70;99.90;;;;;;4995155;28;20461;-78
2023/03/11 02:15:12;;;;;;;5.00;1.30;;;0.20;99.90;;;;;;4994937;28;20020;-78
2023/03/11 02:17:40;;;;;;;6.00;1.42;;;0.20;99.90;;;;;;4994269;28;20046;-78
2023/03/11 02:20:43;;;;;;;4.28;1.23;;;0.20;99.90;;;;;;4994321;28;20108;-77
2023/03/11 02:23:12;;;;;;;4.68;1.13;;;0.20;99.90;;;;;;4994244;28;20061;-78
2023/03/11 02:26:01;;;;;;;5.15;1.08;;;0.20;99.90;;;;;;4993639;28;20097;-78
2023/03/11 02:28:29;;;;;;;11.38;2.17;;;0.20;99.90;;;;;;4994726;28;20109;-78
2023/03/11 02:30:55;;;;;;;4.70;1.13;;;0.20;99.90;;;;;;4994122;28;20053;-78
2023/03/11 02:33:25;;;;;;;4.43;1.10;;;0.20;99.90;;;;;;4994551;28;20100;-78
2023/03/11 02:35:51;;;;;;;3.00;1.10;;;0.30;99.90;;;;;;4992612;28;20042;-78
2023/03/11 02:38:17;;;;;;;2.67;1.00;;;0.50;99.90;;;;;;4994116;28;20046;-78
2023/03/11 02:40:58;;;;;;;3.70;1.25;;;0.20;99.90;;;;;;4992421;28;20482;-78
2023/03/11 02:43:40;;;;;;;9.20;1.35;;;0.20;99.90;;;;;;4994204;28;20055;-78
2023/03/11 02:46:10;;;;;;;2.05;1.00;;;0.20;99.90;;;;;;4994228;28;20046;-77
2023/03/11 02:48:36;;;;;;;3.90;1.00;;;0.20;99.90;;;;;;4993961;28;20046;-78
2023/03/11 02:51:02;;;;;;;5.28;1.27;;;0.20;99.90;;;;;;4994127;28;20046;-78
2023/03/11 02:53:32;;;;;;;7.05;1.23;;;0.20;99.90;;;;;;4993263;28;20038;-77
2023/03/11 02:55:58;;;;;;;4.05;0.80;;;0.20;99.90;;;;;;4993268;28;20039;-78
2023/03/11 02:58:23;;;;;;;2.17;1.02;;;0.80;99.90;;;;;;4993052;28;20046;-78
2023/03/11 03:00:49;;;;;;;4.43;0.82;;;0.20;99.90;;;;;;4992357;28;20137;-78
2023/03/11 03:03:15;;;;;;;1.02;0.82;;;0.20;99.90;;;;;;4993790;28;20046;-77
2023/03/11 03:05:40;;;;;;;2.13;1.15;;;0.20;99.90;;;;;;4993467;28;20472;-77
2023/03/11 03:08:06;;;;;;;3.00;1.08;;;0.20;99.90;;;;;;4993151;28;20484;-77
2023/03/11 03:10:32;;;;;;;3.47;1.10;;;0.20;99.90;;;;;;4993109;28;20563;-77
2023/03/11 03:12:58;;;;;;;2.25;1.00;;;0.20;99.90;;;;;;4992647;28;20270;-77
2023/03/11 03:15:23;;;;;;;0.80;0.80;;;0.20;99.90;;;;;;4993622;28;20495;-77
2023/03/11 03:17:50;;;;;;;2.97;1.00;;;0.10;99.90;;;;;;4992072;28;20495;-77
2023/03/11 03:20:17;;;;;;;2.60;1.27;;;0.10;99.90;;;;;;4993697;28;20156;-77
2023/03/11 03:22:43;;;;;;;1.85;1.23;;;0.00;99.90;;;;;;4992749;28;20042;-78
2023/03/11 03:25:09;;;;;;;;;;;0.00;99.90;;;;;;4994015;28;20540;-78
2023/03/11 03:27:35;;;;;;;3.93;1.10;;;-0.10;99.90;;;;;;4993943;28;19922;-78
2023/03/11 03:30:01;;;;;;;2.50;1.10;;;-0.20;99.90;;;;;;4993856;28;20359;-78
2023/03/11 03:32:27;;;;;;;1.67;0.82;;;-0.20;99.90;;;;;;4992919;28;20110;-78
2023/03/11 03:34:57;;;;;;;3.15;0.90;;;-0.30;99.90;;;;;;4993577;28;20050;-78
2023/03/11 03:37:27;;;;;;;3.50;1.08;;;-0.40;99.90;;;;;;4992537;28;20128;-78
2023/03/11 03:39:53;;;;;;;3.35;0.90;;;-0.40;99.90;;;;;;4992088;28;20085;-78
2023/03/11 03:42:20;;;;;;;1.98;0.95;;;-0.20;99.90;;;;;;4993589;28;20484;-78
2023/03/11 03:44:45;;;;;;;1.67;0.93;;;0.00;99.90;;;;;;4992580;28;20097;-78
2023/03/11 03:47:11;;;;;;;2.55;1.15;;;-0.50;99.90;;;;;;4993312;28;20093;-78
2023/03/11 03:49:37;;;;;;;2.30;0.90;;;-0.50;99.90;;;;;;4993860;28;20046;-78
2023/03/11 03:52:07;;;;;;;;;;;-0.50;99.90;;;;;;4993806;28;20662;-79
2023/03/11 03:54:33;;;;;;;1.30;0.93;;;-0.60;99.90;;;;;;4992806;28;19926;-78
2023/03/11 03:56:59;;;;;;;;;;;-0.50;99.90;;;;;;4993066;28;20052;-78
2023/03/11 03:59:24;;;;;;;2.88;1.02;;;-0.70;99.90;;;;;;4993521;28;19921;-78
2023/03/11 04:01:50;;;;;;;10.60;1.00;;;-0.40;99.90;;;;;;4992951;28;20502;-78
2023/03/11 04:04:16;;;;;;;2.72;0.93;;;-0.80;99.90;;;;;;4993411;28;20134;-78
2023/03/11 04:06:42;;;;;;;4.78;1.15;;;-0.90;99.90;;;;;;4993486;28;20046;-78
2023/03/11 04:09:10;;;;;;;6.63;1.15;;;-0.90;99.90;;;;;;4992762;28;20104;-78
2023/03/11 04:11:35;;;;;;;6.35;1.13;;;-1.00;99.90;;;;;;4993057;28;20050;-78
2023/03/11 04:14:02;;;;;;;1.80;0.90;;;-1.00;99.90;;;;;;4992921;28;20053;-78
2023/03/11 04:16:27;;;;;;;;;;;-1.10;99.90;;;;;;4993911;28;20046;-78
2023/03/11 04:18:53;;;;;;;1.17;0.80;;;-1.10;99.90;;;;;;4992987;28;19926;-78
2023/03/11 04:21:19;;;;;;;4.60;0.80;;;-0.60;99.90;;;;;;4993356;28;20046;-78
2023/03/11 04:23:44;;;;;;;0.85;0.82;;;-1.20;99.90;;;;;;4992495;28;20042;-78
2023/03/11 04:26:10;;;;;;;3.80;1.00;;;-1.30;99.90;;;;;;4991501;28;20049;-78
2023/03/11 04:28:36;;;;;;;3.00;1.00;;;-1.30;99.90;;;;;;4993273;28;20062;-78
2023/03/11 04:31:02;;;;;;;3.10;0.85;;;-1.20;99.90;;;;;;4975412;28;20395;-78
2023/03/11 04:33:27;;;;;;;1.42;1.02;;;-1.30;99.90;;;;;;4992045;28;20092;-78
2023/03/11 04:35:53;;;;;;;0.80;0.80;;;-1.40;99.90;;;;;;4992546;28;20046;-78
2023/03/11 04:38:19;;;;;;;1.35;0.75;;;-1.40;99.90;;;;;;4992356;28;20046;-78
2023/03/11 04:40:44;;;;;;;1.50;0.77;;;-1.40;99.90;;;;;;4992389;28;20053;-78
2023/03/11 04:43:10;;;;;;;2.90;1.17;;;-1.40;99.90;;;;;;4992370;28;20038;-78
2023/03/11 04:45:41;;;;;;;7.60;1.00;;;-1.40;99.90;;;;;;4992785;28;20471;-78
2023/03/11 04:48:07;;;;;;;3.40;2.15;;;-1.40;99.90;;;;;;4992216;28;20649;-78
2023/03/11 04:50:33;;;;;;;3.47;0.90;;;-1.40;99.90;;;;;;4992544;28;20050;-78
2023/03/11 04:52:59;;;;;;;;;;;-1.50;99.90;;;;;;4991247;28;20050;-78
2023/03/11 04:55:25;;;;;;;5.32;0.95;;;-1.50;99.90;;;;;;4991552;28;19929;-78
2023/03/11 04:57:51;;;;;;;3.17;1.00;;;-1.50;99.90;;;;;;4992084;28;20129;-78
2023/03/11 05:00:21;;;;;;;3.70;0.90;;;-1.50;99.90;;;;;;4992556;28;20046;-78
2023/03/11 05:02:47;;;;;;;2.15;1.15;;;-1.60;99.90;;;;;;4992360;28;20463;-78
2023/03/11 05:05:13;;;;;;;5.55;1.00;;;-1.60;99.90;;;;;;4992445;28;20048;-78
2023/03/11 05:07:38;;;;;;;3.67;1.02;;;-1.60;99.90;;;;;;4992095;28;20050;-78
2023/03/11 05:10:05;;;;;;;2.65;1.10;;;-1.10;99.90;;;;;;4991448;28;20487;-78
2023/03/11 05:12:31;;;;;;;0.80;0.60;;;-1.60;99.90;;;;;;4992347;28;20043;-78
2023/03/11 05:14:57;;;;;;;1.08;0.88;;;-1.60;99.90;;;;;;4991729;28;20042;-78
2023/03/11 05:17:23;;;;;;;4.32;1.20;;;-1.60;99.90;;;;;;4990874;28;20108;-78
2023/03/11 05:19:50;;;;;;;4.28;0.90;;;-1.70;99.90;;;;;;4991208;28;20118;-78
2023/03/11 05:22:16;;;;;;;4.47;1.00;;;-1.30;99.90;;;;;;4992073;28;20060;-78
2023/03/11 05:24:41;;;;;;;1.25;0.82;;;-1.70;99.90;;;;;;4992086;28;20042;-78
2023/03/11 05:27:07;;;;;;;3.33;1.48;;;-1.70;99.90;;;;;;4991861;28;20110;-78
2023/03/11 05:29:33;;;;;;;1.65;1.05;;;-1.80;99.90;;;;;;4992219;28;20050;-78
2023/03/11 05:31:58;;;;;;;3.97;1.25;;;-1.80;99.90;;;;;;4990637;28;20534;-78
2023/03/11 05:34:24;;;;;;;4.00;0.90;;;-1.80;99.90;;;;;;4990882;28;20050;-78
2023/03/11 05:36:50;;;;;;;3.67;1.00;;;-1.90;99.90;;;;;;4992769;28;20049;-78
2023/03/11 05:39:15;;;;;;;2.67;0.90;;;-1.90;99.90;;;;;;4995849;28;20105;-78
2023/03/11 05:41:41;;;;;;;2.47;1.05;;;-1.90;99.90;;;;;;4995749;28;20085;-78
2023/03/11 05:44:07;;;;;;;;;;;-1.90;99.90;;;;;;4978776;28;20122;-77
2023/03/11 05:46:33;;;;;;;1.58;0.80;;;-2.00;99.90;;;;;;4995816;28;19930;-78
2023/03/11 05:48:59;;;;;;;5.82;1.17;;;-1.60;99.90;;;;;;4995461;28;20050;-78
2023/03/11 05:51:24;;;;;;;;;;;-2.00;99.90;;;;;;4996322;28;20108;-78
2023/03/11 05:53:50;;;;;;;3.53;1.00;;;-1.80;99.90;;;;;;4995426;28;20383;-78
2023/03/11 05:56:18;;;;;;;1.98;1.00;;;-2.00;99.90;;;;;;4995464;28;20058;-78
2023/03/11 05:58:44;;;;;;;2.22;1.20;;;-2.00;99.90;;;;;;4995884;28;20046;-78
2023/03/11 06:01:12;;;;;;;3.25;1.30;;;-2.00;99.90;;;;;;4994261;28;20057;-78
2023/03/11 06:03:38;;;;;;;1.02;0.95;;;-2.00;99.90;;;;;;4977992;28;20476;-78
2023/03/11 06:06:06;;;;;;;5.35;1.33;;;-2.00;99.90;;;;;;4995373;28;20104;-78
2023/03/11 06:08:35;;;;;;;5.28;1.52;;;-2.00;99.90;;;;;;4994532;28;20046;-78
2023/03/11 06:11:07;;;;;;;1.52;0.80;;;-2.10;99.90;;;;;;4994679;28;20042;-78
2023/03/11 06:13:33;;;;;;;0.82;0.82;;;-2.10;99.90;;;;;;4995374;28;20675;-78
2023/03/11 06:15:59;;;;;;;;;;;-2.00;99.90;;;;;;4995480;28;20053;-78
2023/03/11 06:18:27;;;;;;;2.30;1.00;;;-2.10;99.90;;;;;;4994403;28;19945;-78
2023/03/11 06:20:56;;;;;;;3.80;0.95;;;-2.10;99.90;;;;;;4995181;28;20057;-78
2023/03/11 06:23:22;;;;;;;1.50;0.80;;;-2.10;99.90;;;;;;4995156;28;20052;-78
2023/03/11 06:25:56;;;;;;;2.40;1.40;;;-2.10;99.90;;;;;;4994845;28;20479;-78
2023/03/11 06:28:22;;;;;;;1.73;1.02;;;-2.10;99.90;;;;;;4994594;28;20484;-78
2023/03/11 06:30:48;;;;;;;1.77;1.00;;;-2.10;99.90;;;;;;4995497;28;20050;-78
2023/03/11 06:33:13;;;;;;;5.18;1.17;;;-2.00;99.90;;;;;;4994869;28;20513;-78
2023/03/11 06:35:40;;;;;;;1.58;1.05;;;-2.10;99.90;;;;;;4995257;28;20046;-78
2023/03/11 06:38:05;;;;;;;;;;;-2.00;99.90;;;;;;4994706;28;20050;-78
2023/03/11 06:40:31;;;;;;;5.25;1.40;;;-2.00;99.90;;;;;;4994652;28;19921;-78
2023/03/11 06:42:57;;;;;;;;;;;-2.00;99.90;;;;;;4995243;28;20038;-77
2023/03/11 06:45:23;;;;;;;1.38;1.00;;;-2.00;99.90;;;;;;4995033;28;19925;-78
2023/03/11 06:47:48;;;;;;;1.98;1.10;;;-2.00;99.90;;;;;;4993809;28;20502;-78
2023/03/11 06:50:14;;;;;;;6.20;1.15;;;-1.60;99.90;;;;;;4994196;28;20124;-78
2023/03/11 06:52:40;;;;;;;2.60;1.10;;;-2.00;99.90;;;;;;4994391;28;20104;-78
2023/03/11 06:55:06;;;;;;;2.72;1.27;;;-2.00;99.90;;;;;;4993590;28;20059;-78
2023/03/11 06:57:32;;;;;;;;;;;-1.90;99.90;;;;;;4995184;28;20484;-78
2023/03/11 06:59:58;;;;;;;1.45;1.35;;;-2.00;99.90;;;;;;4994716;28;19944;-81
2023/03/11 07:02:23;;;;;;;4.50;1.75;;;-1.90;99.90;;;;;;4993381;28;20051;-76
2023/03/11 07:04:50;;;;;;;2.25;1.10;;;-1.90;99.90;;;;;;4994460;28;20043;-78
2023/03/11 07:07:15;;;;;;;3.33;1.50;;;-1.80;99.90;;;;;;4993963;28;20054;-78
2023/03/11 07:09:41;;;;;;;8.48;1.58;;;-1.80;99.90;;;;;;4994146;28;20054;-78
2023/03/11 07:12:08;;;;;;;4.00;1.52;;;-1.80;99.90;;;;;;4994047;28;20057;-78
2023/03/11 07:14:33;;;;;;;1.95;1.30;;;-1.70;99.90;;;;;;4994609;28;20475;-78
2023/03/11 07:16:59;;;;;;;2.97;1.40;;;-1.70;99.90;;;;;;4993434;28;20055;-78
2023/03/11 07:19:25;;;;;;;1.35;0.93;;;-1.70;99.90;;;;;;4993004;28;20042;-78
2023/03/11 07:21:51;;;;;;;1.08;0.80;;;-1.20;99.90;;;;;;4994546;28;20503;-78
2023/03/11 07:24:17;;;;;;;2.95;1.30;;;-1.60;99.90;;;;;;4993957;28;20054;-78
2023/03/11 07:26:42;;;;;;;0.82;0.82;;;-1.60;99.90;;;;;;4993821;28;20046;-78
2023/03/11 07:29:09;;;;;;;2.22;1.27;;;-1.60;99.90;;;;;;4993047;28;20054;-78
2023/03/11 07:31:35;;;;;;;10.98;1.92;;;-1.50;99.90;;;;;;4993847;28;20527;-78
2023/03/11 07:34:04;;;;;;;1.20;1.10;;;-1.20;99.90;;;;;;4993739;28;20093;-76
2023/03/11 07:36:31;;;;;;;3.00;1.10;;;-1.40;99.90;;;;;;4993810;28;20096;-78
2023/03/11 07:38:59;;;;;;;5.97;1.48;;;-1.40;99.90;;;;;;4992855;28;20050;-77
2023/03/11 07:41:26;;;;;;;7.47;1.13;;;-1.30;99.90;;;;;;4992984;28;20206;-76
2023/03/11 07:43:56;;;;;;;5.60;1.63;;;-1.30;99.90;;;;;;4993607;28;20050;-78
2023/03/11 07:46:24;;;;;;;4.13;1.55;;;-1.20;99.90;;;;;;4993683;28;20046;-77
2023/03/11 07:48:50;;;;;;;3.55;1.70;;;-1.20;99.90;;;;;;4992938;28;20482;-79
2023/03/11 07:51:18;;;;;;;5.55;1.35;;;-1.10;99.90;;;;;;4993427;28;20057;-79
2023/03/11 07:53:45;;;;;;;5.25;1.40;;;-1.10;99.90;;;;;;4993526;28;20100;-78
2023/03/11 07:56:11;;;;;;;;;;;-1.00;99.90;;;;;;4993023;28;20416;-78
2023/03/11 07:58:38;;;;;;;4.60;1.52;;;-1.00;99.90;;;;;;4993601;28;19928;-79
2023/03/11 08:01:15;;;;;;;3.60;1.45;;;-0.90;99.90;;;;;;4992783;28;20618;-78
2023/03/11 08:03:41;;;;;;;2.53;1.20;;;-0.90;99.90;;;;;;4993364;28;20176;-79
2023/03/11 08:06:18;;;;;;;6.60;1.40;;;-0.80;99.90;;;;;;4993224;28;20065;-82
2023/03/11 08:08:44;;;;;;;1.25;1.10;;;-0.80;99.90;;;;;;4993085;28;20046;-79
2023/03/11 08:11:14;;;;;;;4.43;1.50;;;-0.80;99.90;;;;;;4992403;28;20111;-79
2023/03/11 08:13:41;;;;;;;6.38;1.33;;;-0.80;99.90;;;;;;4993282;28;20043;-78
2023/03/11 08:16:09;;;;;;;2.67;1.40;;;-0.70;99.90;;;;;;4992938;28;20050;-80
2023/03/11 08:18:34;;;;;;;5.90;1.30;;;-0.60;99.90;;;;;;4993169;28;20053;-79
2023/03/11 08:21:10;;;;;;;5.70;1.58;;;-0.50;99.90;;;;;;4993345;28;20046;-78
2023/03/11 08:23:36;;;;;;;2.80;1.50;;;-0.40;99.90;;;;;;4992936;28;20057;-78
2023/03/11 08:26:11;;;;;;;2.65;1.33;;;-0.40;99.90;;;;;;4992975;28;20042;-78
2023/03/11 08:28:36;;;;;;;1.50;0.93;;;-0.30;99.90;;;;;;4993012;28;20049;-78
2023/03/11 08:31:02;;;;;;;3.83;1.02;;;-0.20;99.90;;;;;;4993244;28;20038;-79
2023/03/11 08:33:28;;;;;;;5.75;1.20;;;-0.10;99.90;;;;;;4991569;28;20476;-79
2023/03/11 08:35:54;;;;;;;2.10;1.08;;;0.00;99.90;;;;;;4993083;28;20133;-78
2023/03/11 08:38:20;;;;;;;5.55;0.90;;;0.00;99.90;;;;;;4992193;28;20058;-73
2023/03/11 08:40:45;;;;;;;2.38;1.40;;;0.90;99.90;;;;;;4992498;28;20074;-74
2023/03/11 08:43:12;;;;;;;1.13;0.98;;;0.30;99.90;;;;;;4992671;28;20538;-80
2023/03/11 08:45:40;;;;;;;3.00;1.02;;;0.30;99.90;;;;;;4992956;28;20042;-73
2023/03/11 08:48:08;;;;;;;4.60;1.13;;;0.40;99.90;;;;;;4992334;28;20089;-76
2023/03/11 08:50:33;;;;;;;2.70;1.55;;;0.50;99.90;;;;;;4992230;28;20056;-75
2023/03/11 08:53:01;;;;;;;2.47;1.60;;;0.70;99.90;;;;;;4991653;28;20049;-77
2023/03/11 08:55:28;;;;;;;2.67;1.23;;;0.60;99.90;;;;;;4991286;28;20102;-77
2023/03/11 08:57:55;;;;;;;7.63;1.60;;;0.70;99.90;;;;;;4991267;28;20082;-77
2023/03/11 09:00:21;;;;;;;8.45;1.67;;;0.70;99.90;;;;;;4992005;28;20054;-77
2023/03/11 09:02:47;;;;;;;2.85;1.50;;;0.80;99.90;;;;;;4992079;28;20133;-76
2023/03/11 09:05:13;;;;;;;13.35;2.90;;;0.80;99.90;;;;;;4992094;28;20129;-77
2023/03/11 09:07:39;;;;;;;3.58;1.20;;;0.80;99.90;;;;;;4990725;28;20472;-79
2023/03/11 09:10:05;;;;;;;1.88;1.20;;;0.80;99.90;;;;;;4991597;28;20101;-79
2023/03/11 09:12:31;;;;;;;1.67;1.20;;;0.90;99.90;;;;;;4990097;28;20052;-80
2023/03/11 09:14:57;;;;;;;5.15;1.15;;;1.50;99.90;;;;;;4991997;28;20050;-79
2023/03/11 09:17:23;;;;;;;5.53;1.40;;;1.00;99.90;;;;;;4991592;28;20053;-81
2023/03/11 09:19:49;;;;;;;4.13;1.85;;;1.60;99.90;;;;;;4991983;28;20081;-79
2023/03/11 09:22:15;;;;;;;4.28;1.30;;;1.10;99.90;;;;;;4991936;28;20112;-79
2023/03/11 09:24:41;;;;;;;2.42;1.23;;;1.10;99.90;;;;;;4990894;28;20050;-79
2023/03/11 09:27:06;;;;;;;3.58;1.20;;;1.10;99.90;;;;;;4990645;28;20053;-80
2023/03/11 09:29:32;;;;;;;4.97;1.08;;;1.20;99.90;;;;;;4990667;28;20053;-80
2023/03/11 09:31:58;;;;;;;2.95;0.95;;;1.20;99.90;;;;;;4992090;28;20085;-80
2023/03/11 09:34:24;;;;;;;4.93;1.77;;;1.60;99.90;;;;;;4990154;28;20049;-80
2023/03/11 09:36:49;;;;;;;3.30;0.98;;;1.40;99.90;;;;;;4991541;28;20050;-80
2023/03/11 09:39:15;;;;;;;5.22;1.65;;;1.40;99.90;;;;;;4991989;28;20046;-79
2023/03/11 09:41:53;;;;;;;4.13;1.30;;;1.50;99.90;;;;;;4991609;28;20480;-80
2023/03/11 09:44:47;;;;;;;5.50;1.50;;;1.50;99.90;;;;;;4992016;28;20480;-80
2023/03/11 09:47:36;;;;;;;7.72;1.35;;;1.60;99.90;;;;;;4992189;28;20050;-79
2023/03/11 09:50:31;;;;;;;7.53;1.30;;;1.60;99.90;;;;;;4992181;28;20089;-80
2023/03/11 09:53:09;;;;;;;5.93;1.42;;;1.70;99.90;;;;;;4991538;28;20101;-80
2023/03/11 09:55:49;;;;;;;4.78;1.13;;;1.70;99.90;;;;;;4990993;28;20144;-82
2023/03/11 09:58:36;;;;;;;3.72;1.30;;;1.80;99.90;;;;;;4992085;28;20046;-85
2023/03/11 10:01:22;;;;;;;12.70;1.73;;;1.90;99.90;;;;;;4992117;28;20051;-83
2023/03/11 10:03:51;;;;;;;2.15;1.15;;;1.90;99.90;;;;;;4990255;28;20050;-82
2023/03/11 10:06:22;;;;;;;3.05;1.38;;;1.90;99.90;;;;;;4991972;28;20047;-81
2023/03/11 10:09:25;;;;;;;4.72;1.27;;;2.30;99.90;;;;;;4991577;28;20133;-83
2023/03/11 10:12:13;;;;;;;7.90;1.38;;;2.10;99.90;;;;;;4991608;28;20050;-84
2023/03/11 10:14:48;;;;;;;8.77;1.55;;;2.10;99.90;;;;;;4991305;28;20049;-82
2023/03/11 10:17:26;;;;;;;2.90;1.20;;;2.20;99.90;;;;;;4991893;28;20060;-80
2023/03/11 10:20:42;;;;;;;1.90;1.15;;;2.20;99.90;;;;;;4990632;28;20051;-81
2023/03/11 10:23:13;;;;;;;15.98;2.13;;;2.30;99.90;;;;;;4989658;28;20098;-78
2023/03/11 10:25:57;;;;;;;3.33;1.15;;;2.40;99.90;;;;;;4994370;28;20046;-79
2023/03/11 10:28:48;;;;;;;3.22;1.10;;;2.60;99.90;;;;;;4994698;28;20054;-78
2023/03/11 10:31:23;;;;;;;2.88;1.48;;;2.70;99.90;;;;;;4995137;28;20197;-78
2023/03/11 10:33:57;;;;;;;5.15;1.42;;;2.80;99.90;;;;;;4994668;28;20046;-78
2023/03/11 10:36:30;;;;;;;5.53;1.40;;;2.90;99.90;;;;;;4994183;28;20061;-78
2023/03/11 10:38:56;;;;;;;2.90;1.42;;;3.00;99.90;;;;;;4993991;28;20483;-79
2023/03/11 10:41:36;;;;;;;2.95;1.10;;;3.10;99.90;;;;;;4994128;28;20399;-79
2023/03/11 10:44:08;;;;;;;4.85;1.10;;;3.20;99.90;;;;;;4994488;28;20496;-79
2023/03/11 10:46:33;;;;;;;6.10;1.50;;;3.30;99.90;;;;;;4994123;28;20050;-79
2023/03/11 10:49:00;;;;;;;4.90;1.55;;;3.30;99.90;;;;;;4994295;28;20048;-79
2023/03/11 10:51:33;;;;;;;5.35;1.65;;;3.40;99.90;;;;;;4994206;28;20085;-78
2023/03/11 10:54:00;;;;;;;3.03;1.23;;;3.50;99.90;;;;;;4993813;28;20391;-78
2023/03/11 10:56:35;;;;;;;3.10;1.75;;;3.70;99.90;;;;;;4993661;28;20419;-79
2023/03/11 10:59:03;;;;;;;1.52;0.88;;;3.70;99.90;;;;;;4993999;28;20082;-80
2023/03/11 11:01:29;;;;;;;9.35;1.33;;;3.80;99.90;;;;;;4992851;28;20057;-80
2023/03/11 11:03:58;;;;;;;1.08;0.85;;;3.90;99.90;;;;;;4994296;28;20042;-80
2023/03/11 11:06:36;;;;;;;7.85;1.25;;;4.10;99.90;;;;;;4994000;28;20058;-79
2023/03/11 11:09:07;;;;;;;3.95;1.10;;;4.10;99.90;;;;;;4993636;28;20047;-80
2023/03/11 11:11:38;;;;;;;1.65;1.20;;;4.30;99.90;;;;;;4991946;28;20073;-80
2023/03/11 11:14:04;;;;;;;4.55;1.42;;;4.40;99.90;;;;;;4993907;28;20112;-80
2023/03/11 11:16:33;;;;;;;5.90;1.30;;;4.50;99.90;;;;;;4992515;28;20492;-80
2023/03/11 11:19:06;;;;;;;2.10;1.33;;;4.60;99.90;;;;;;4993808;28;20113;-84
2023/03/11 11:22:02;;;;;;;3.53;0.93;;;4.70;99.90;;;;;;4993386;28;20134;-79
2023/03/11 11:24:30;;;;;;;3.13;1.10;;;4.80;99.90;;;;;;4991874;28;20121;-79
2023/03/11 11:27:17;;;;;;;7.20;1.13;;;4.90;99.90;;;;;;4992913;28;20491;-80
2023/03/11 11:29:43;;;;;;;4.13;1.10;;;4.90;99.90;;;;;;4992701;28;20050;-80
2023/03/11 11:32:20;;;;;;;1.45;1.02;;;5.10;99.90;;;;;;4993074;28;20369;-79
2023/03/11 11:35:02;;;;;;;4.80;0.93;;;5.30;99.90;;;;;;4992911;28;20125;-79
2023/03/11 11:37:32;;;;;;;2.17;0.90;;;5.50;99.90;;;;;;4993533;28;20630;-80
2023/03/11 11:40:11;;;;;;;3.92;0.98;;;5.70;99.90;;;;;;4992433;28;20395;-79
2023/03/11 11:42:38;;;;;;;9.40;1.00;;;5.90;99.90;;;;;;4993175;28;20046;-80
2023/03/11 11:45:24;;;;;;;2.05;0.98;;;6.20;99.90;;;;;;4993256;28;20057;-81
2023/03/11 11:47:55;;;;;;;3.63;0.98;;;6.40;99.90;;;;;;4992434;28;20583;-79
2023/03/11 11:50:45;;;;;;;1.08;0.98;;;6.70;99.90;;;;;;4993193;28;20054;-79
2023/03/11 11:53:46;;;;;;;2.20;1.00;;;7.10;99.90;;;;;;4992800;28;20053;-78
2023/03/11 11:56:12;;;;;;;5.65;1.58;;;7.40;99.90;;;;;;4970839;28;20134;-80
2023/03/11 11:58:39;;;;;;;;;;;7.60;99.90;;;;;;4992689;28;20130;-80
2023/03/11 12:01:12;;;;;;;2.72;1.13;;;7.70;99.90;;;;;;4992953;28;19984;-80
2023/03/11 12:03:49;;;;;;;4.78;0.80;;;7.80;99.90;;;;;;4992584;28;20050;-83
2023/03/11 12:06:20;;;;;;;3.85;1.13;;;7.90;99.90;;;;;;4992861;28;20053;-80
2023/03/11 12:08:55;;;;;;;1.10;0.73;;;8.10;99.90;;;;;;4992086;28;20069;-80
2023/03/11 12:11:40;;;;;;;3.30;1.00;;;8.30;99.90;;;;;;4992585;28;20050;-80
2023/03/11 12:14:29;;;;;;;5.32;0.90;;;8.30;99.90;;;;;;4992620;28;20042;-80
2023/03/11 12:16:58;;;;;;;4.30;1.20;;;8.40;99.90;;;;;;4992246;28;20558;-80
2023/03/11 12:19:42;;;;;;;2.58;0.85;;;8.50;99.90;;;;;;4992364;28;20050;-81
2023/03/11 12:22:08;;;;;;;2.15;0.70;;;8.60;99.90;;;;;;4992582;28;20042;-80
2023/03/11 12:25:11;;;;;;;1.65;0.77;;;8.60;99.90;;;;;;4991690;28;20053;-80
2023/03/11 12:27:45;;;;;;;3.50;0.77;;;8.60;99.90;;;;;;4992060;28;20050;-80
2023/03/11 12:30:22;;;;;;;2.92;0.63;;;8.50;99.90;;;;;;4992609;28;20046;-82
2023/03/11 12:33:01;;;;;;;2.83;0.85;;;8.50;99.90;;;;;;4992070;28;20046;-81
2023/03/11 12:35:29;;;;;;;3.10;0.80;;;8.50;99.90;;;;;;4991918;28;20125;-80
2023/03/11 12:38:22;;;;;;;2.83;0.80;;;8.80;99.90;;;;;;4990706;28;20104;-80
2023/03/11 12:40:49;;;;;;;0.73;0.52;;;9.00;99.90;;;;;;4991809;28;20546;-79
2023/03/11 12:43:47;;;;;;;2.58;0.60;;;9.40;99.90;;;;;;4992133;28;20085;-80
2023/03/11 12:46:17;;;;;;;4.70;0.80;;;9.50;99.90;;;;;;4984573;28;20058;-80
2023/03/11 12:49:10;;;;;;;1.95;0.63;;;9.40;99.90;;;;;;4991817;28;20054;-80
2023/03/11 12:51:36;;;;;;;2.42;0.70;;;9.20;93.10;;;;;;4991714;28;20056;-80
2023/03/11 12:54:29;;;;;;;3.92;1.40;;;9.20;99.90;;;;;;4991892;28;20482;-80
2023/03/11 12:57:07;;;;;;;4.60;0.57;;;9.40;99.90;;;;;;4991957;28;20505;-77
2023/03/11 13:00:16;;;;;;;2.83;0.93;;;9.60;99.90;;;;;;4992691;28;20137;-78
2023/03/11 13:03:09;;;;;;;11.15;0.80;;;9.70;90.40;;;;;;4991529;28;20054;-81
2023/03/11 13:05:56;;;;;;;1.90;0.70;;;9.60;92.30;;;;;;4990366;28;20039;-81
2023/03/11 13:08:30;;;;;;;1.70;0.50;;;9.70;98.20;;;;;;4991264;28;20497;-83